Cheramie Botruc No 39 — WDB9134 — position and weather

sailwx.info

Track history (hours):
 
Tides and Currents Weather Stations Pressure Air Temp Water Temp Dewpoint Dewpoint Depression Visibility Wind Speed Wind Dir Waves Ship Positions

Cheramie Botruc No 39

Owner: L & M BOTRUC, GALLIANO, LA. More information available from US FCC via Universal Licensing System and Coast Guard Vessel Documentation Center.

Last reported at 2017-Nov-15 23:53 UTC. Time now 2017-Nov-18 08:40 UTC.
Position N 29°33' W 092°18'.

Length 58 m; draft 3.6 m.

Type: Ship (hazmat cat C). MMSI: 366970330.

Date/timePositionNaut miles runAvg speedWind from/ knotsBaromVisibWave heightAir tempDewpointWater temp
2017-Nov-15 23:53N 29°33' W 092°18'2 5.3
2017-Nov-15 23:28N 29°35' W 092°18'3 5.6
2017-Nov-15 22:57N 29°38' W 092°16'3 5.8
2017-Nov-15 22:30N 29°40' W 092°15'3 6.2
2017-Nov-15 22:00N 29°43' W 092°15'3 6.1
2017-Nov-15 21:30N 29°45' W 092°12'3 5.6
2017-Nov-15 21:00N 29°47' W 092°09'1 1.9
2017-Nov-15 20:30N 29°48' W 092°09'0 0.7
2017-Nov-15 20:00N 29°47' W 092°09'3 5.5
2017-Nov-15 19:30N 29°46' W 092°11'1 2.0
2017-Nov-15 18:59N 29°47' W 092°11'0 0.0
2017-Nov-15 18:29N 29°47' W 092°11'0 0.0
2017-Nov-15 17:59N 29°47' W 092°11'0 0.0
2017-Nov-15 17:29N 29°47' W 092°11'0 0.0
2017-Nov-15 16:59N 29°47' W 092°11'0 0.0
2017-Nov-15 16:29N 29°47' W 092°11'0 0.0
2017-Nov-15 15:59N 29°47' W 092°11'0 0.0
2017-Nov-15 15:29N 29°47' W 092°11'0 0.0
2017-Nov-15 14:59N 29°47' W 092°11'0 0.0
2017-Nov-15 14:29N 29°47' W 092°11'0 0.0
2017-Nov-15 13:59N 29°47' W 092°11'0 0.4
2017-Nov-15 13:30N 29°47' W 092°11'2 3.5
2017-Nov-15 13:00N 29°45' W 092°12'2 4.9
2017-Nov-15 12:30N 29°44' W 092°14'2 3.8
2017-Nov-15 12:00N 29°42' W 092°15'3 5.6
2017-Nov-15 11:30N 29°39' W 092°16'3 5.0
2017-Nov-15 10:59N 29°37' W 092°17'3 4.9
2017-Nov-15 10:27N 29°35' W 092°18'  
Track history (hours):
 
Tides and Currents Weather Stations Pressure Air Temp Water Temp Dewpoint Dewpoint Depression Visibility Wind Speed Wind Dir Waves Ship Positions

Cheramie Botruc No 39

Owner: L & M BOTRUC, GALLIANO, LA. More information available from US FCC via Universal Licensing System and Coast Guard Vessel Documentation Center.

Last reported at 2017-Nov-15 23:53 UTC. Time now 2017-Nov-18 08:40 UTC.
Position N 29°33' W 092°18'.

Length 58 m; draft 3.6 m.

Type: Ship (hazmat cat C). MMSI: 366970330.

Date/timePositionNaut miles runAvg speedWind from/ knotsBaromVisibWave heightAir tempDewpointWater temp
2017-Nov-15 23:53N 29°33' W 092°18'2 5.3
2017-Nov-15 23:28N 29°35' W 092°18'3 5.6
2017-Nov-15 22:57N 29°38' W 092°16'3 5.8
2017-Nov-15 22:30N 29°40' W 092°15'3 6.2
2017-Nov-15 22:00N 29°43' W 092°15'3 6.1
2017-Nov-15 21:30N 29°45' W 092°12'3 5.6
2017-Nov-15 21:00N 29°47' W 092°09'1 1.9
2017-Nov-15 20:30N 29°48' W 092°09'0 0.7
2017-Nov-15 20:00N 29°47' W 092°09'3 5.5
2017-Nov-15 19:30N 29°46' W 092°11'1 2.0
2017-Nov-15 18:59N 29°47' W 092°11'0 0.0
2017-Nov-15 18:29N 29°47' W 092°11'0 0.0
2017-Nov-15 17:59N 29°47' W 092°11'0 0.0
2017-Nov-15 17:29N 29°47' W 092°11'0 0.0
2017-Nov-15 16:59N 29°47' W 092°11'0 0.0
2017-Nov-15 16:29N 29°47' W 092°11'0 0.0
2017-Nov-15 15:59N 29°47' W 092°11'0 0.0
2017-Nov-15 15:29N 29°47' W 092°11'0 0.0
2017-Nov-15 14:59N 29°47' W 092°11'0 0.0
2017-Nov-15 14:29N 29°47' W 092°11'0 0.0
2017-Nov-15 13:59N 29°47' W 092°11'0 0.4
2017-Nov-15 13:30N 29°47' W 092°11'2 3.5
2017-Nov-15 13:00N 29°45' W 092°12'2 4.9
2017-Nov-15 12:30N 29°44' W 092°14'2 3.8
2017-Nov-15 12:00N 29°42' W 092°15'3 5.6
2017-Nov-15 11:30N 29°39' W 092°16'3 5.0
2017-Nov-15 10:59N 29°37' W 092°17'3 4.9
2017-Nov-15 10:27N 29°35' W 092°18'  

Dump ship's entire track history